Midlothian, IL (60445)

10:01 CST le 20 février 2017 (GMT -0600)
oak forest | | Change Station
Avis météorologiques actifs: Small Craft Advisory

Alt. 10 ft 41.61 °N, 87.74 °W | Updated 19 seconds ago

Nuageux
Nuageux
60.1 ° F
Paraît 60.1 ° F
N
6.8
Vent Variable Vent de Sud

Aujourd'hui
Haut(e) -- | Bas -- ° F
--% Risque de précip.
Hier
Haut(e) -- | Bas -- ° F
Precip. -- pouce
Pression 30.13 pouce
Visibilité 7.0 Miles terrestres
Nuages Nuages épars 21000 ft
Couvert 25000 ft
Point de rosée 46 ° F
Humidité 60%
Précipitations 0.00 pouce
Profondeur de la couche neigeuse Non disponible.
6:38 AM 5:30 PM
Lune descendante, 33% visible
METAR KMDW 201553Z 16008KT 7SM SCT210 OVC250 14/08 A3012 RMK AO2 SLP202 T01440078
Pression 30.13 pouce
Visibilité 7.0 Miles terrestres
Nuages Nuages épars 21000 ft
Couvert 25000 ft
Point de rosée 46 ° F
Humidité 60%
Précipitations 0.00 pouce
Profondeur de la couche neigeuse Non disponible.
6:38 AM 5:30 PM
Lune descendante, 33% visible
METAR KMDW 201553Z 16008KT 7SM SCT210 OVC250 14/08 A3012 RMK AO2 SLP202 T01440078

Get Your Daily Forecast Email!

Thanks for signing up!

Be on the lookout for a verification email in your inbox.

You'll start receiving the daily forecast at 8 AM.

×

10-Day Weather Forecast

Almanac

Astronomie

Feb. 20, 2017 Lever Coucher
Temps réel
Crépuscule civil
Crépuscule nautique
Crépuscule astronomique
Lune
Durée de lumière visible
Longueur du jour
Tomorrow will be .
, % of the Moon is Illuminated

Extrêmes aujourd'hui

State Highs State Lows

Community

WunderPhotos

Upload Photos

1,962,540 Photos téléchargées !

WunderBlog® & News

Nearby

Qualité de l'air

  Qualité de l'air Indice de la qualité de l'air Polluant
Not available.

Épaisseur de neige

Station Depth Altitude

Activité sismique

Ville Distance Mag. Time & Date
Minimum magnitude displayed is 2.5.

Températures des eaux côtières

Lieu Température

Stations

Stations météo à proximité

Emplacement de la station Température Refroidissement éolien Point de rosée Humidité Vent Precip. Alt. Mise à jour Type
                   

Watches & Warnings

Small Craft Advisory
Issued: 09:31 CST Feb. 20, 2017 – National Weather Service

... Small Craft Advisory remains in effect until 3 am CST
Tuesday...

* winds... south 20 to 25 kt.

* Significant waves... to 5 ft for IL... to 3 ft for Indiana.

* Occasional waves... to 7 ft for IL.

Precautionary/preparedness actions...

A Small Craft Advisory means that wind speeds of 21 to 33 knots
are expected to produce hazardous wave conditions to small craft.
Inexperienced mariners... especially those operating smaller
vessels should avoid navigating in these conditions.



Bmd